Edgerton, Canada
Current Conditions -  °F | °C
As of 10:00 PM on Tuesday 25 Nov 2014 (Local Time) from CYLL Reporting Station
Light Snow Light Snow  
Wind Chill: -8°   Ceiling: 7000
Heat Index:   Visibility: 9mi
Dew Point:   Wind: 6mph
Humidity: 85%   Direction: 110°ESE
Pressure: 30.22"   Gusts: NA
Location:  52.75°N, 110.45°W
Report Text: CYLL 260500Z AUTO 11005KT 060V120 9SM -SN FEW014 OVC070 M16/M18 A3022 RMK SLP293
Loading
Personal Weather Stations






























Interactive Weather Map New forecast layout! Learn more

10-Day Weather Forecast

Advertisements
Track Severe Weather on mobile